sensor_id;sensor_type;location;lat;lon;timestamp;pressure;altitude;pressure_sealevel;temperature;humidity
4598;BME280;62772;48.646;8.906;2022-10-16T00:04:54;96194.03;;;13.27;100.00
4598;BME280;62772;48.646;8.906;2022-10-16T00:09:57;96189.66;;;13.43;100.00
4598;BME280;62772;48.646;8.906;2022-10-16T00:14:58;96205.53;;;13.48;100.00
4598;BME280;62772;48.646;8.906;2022-10-16T00:19:59;96206.28;;;13.70;100.00
4598;BME280;62772;48.646;8.906;2022-10-16T00:25:03;96203.34;;;13.63;100.00
4598;BME280;62772;48.646;8.906;2022-10-16T00:30:06;96201.88;;;13.53;100.00
4598;BME280;62772;48.646;8.906;2022-10-16T00:35:08;96201.38;;;13.38;100.00
4598;BME280;62772;48.646;8.906;2022-10-16T00:40:12;96200.28;;;13.52;100.00
4598;BME280;62772;48.646;8.906;2022-10-16T00:45:13;96188.81;;;13.30;100.00
4598;BME280;62772;48.646;8.906;2022-10-16T00:50:18;96195.38;;;12.99;100.00
4598;BME280;62772;48.646;8.906;2022-10-16T00:55:26;96193.72;;;13.07;100.00
4598;BME280;62772;48.646;8.906;2022-10-16T01:00:28;96197.66;;;13.10;100.00
4598;BME280;62772;48.646;8.906;2022-10-16T01:05:32;96218.00;;;12.89;100.00
4598;BME280;62772;48.646;8.906;2022-10-16T01:10:40;96222.00;;;13.04;100.00
4598;BME280;62772;48.646;8.906;2022-10-16T01:15:47;96209.59;;;13.12;100.00
4598;BME280;62772;48.646;8.906;2022-10-16T01:20:52;96206.34;;;13.06;100.00
4598;BME280;62772;48.646;8.906;2022-10-16T01:26:28;96213.22;;;12.95;100.00
4598;BME280;62772;48.646;8.906;2022-10-16T01:31:38;96208.72;;;13.08;100.00
4598;BME280;62772;48.646;8.906;2022-10-16T01:36:43;96216.31;;;13.06;100.00
4598;BME280;62772;48.646;8.906;2022-10-16T01:41:48;96211.38;;;13.08;100.00
4598;BME280;62772;48.646;8.906;2022-10-16T01:46:55;96211.19;;;13.13;100.00
4598;BME280;62772;48.646;8.906;2022-10-16T01:51:59;96193.53;;;13.12;100.00
4598;BME280;62772;48.646;8.906;2022-10-16T01:57:02;96185.16;;;13.14;100.00
4598;BME280;62772;48.646;8.906;2022-10-16T02:02:09;96198.13;;;12.91;100.00
4598;BME280;62772;48.646;8.906;2022-10-16T02:07:12;96211.94;;;13.01;100.00
4598;BME280;62772;48.646;8.906;2022-10-16T02:12:15;96212.38;;;12.82;100.00
4598;BME280;62772;48.646;8.906;2022-10-16T02:17:24;96214.25;;;12.82;100.00
4598;BME280;62772;48.646;8.906;2022-10-16T02:22:27;96207.88;;;12.95;100.00
4598;BME280;62772;48.646;8.906;2022-10-16T02:27:33;96197.53;;;12.85;100.00
4598;BME280;62772;48.646;8.906;2022-10-16T02:32:42;96198.84;;;13.00;100.00
4598;BME280;62772;48.646;8.906;2022-10-16T02:37:44;96198.66;;;13.05;100.00
4598;BME280;62772;48.646;8.906;2022-10-16T02:42:50;96197.28;;;12.99;100.00
4598;BME280;62772;48.646;8.906;2022-10-16T02:47:54;96205.06;;;13.13;100.00
4598;BME280;62772;48.646;8.906;2022-10-16T02:52:54;96203.19;;;13.25;100.00
4598;BME280;62772;48.646;8.906;2022-10-16T02:57:55;96217.72;;;13.24;100.00
4598;BME280;62772;48.646;8.906;2022-10-16T03:02:59;96212.16;;;13.09;100.00
4598;BME280;62772;48.646;8.906;2022-10-16T03:07:59;96205.44;;;13.02;100.00
4598;BME280;62772;48.646;8.906;2022-10-16T03:13:01;96196.09;;;12.87;100.00
4598;BME280;62772;48.646;8.906;2022-10-16T03:18:04;96208.66;;;12.75;100.00
4598;BME280;62772;48.646;8.906;2022-10-16T03:23:05;96205.16;;;12.74;100.00
4598;BME280;62772;48.646;8.906;2022-10-16T03:28:07;96203.41;;;12.78;100.00
4598;BME280;62772;48.646;8.906;2022-10-16T03:33:11;96203.53;;;12.82;100.00
4598;BME280;62772;48.646;8.906;2022-10-16T03:38:12;96212.75;;;12.72;100.00
4598;BME280;62772;48.646;8.906;2022-10-16T03:43:12;96213.91;;;12.62;100.00
4598;BME280;62772;48.646;8.906;2022-10-16T03:48:16;96219.91;;;12.38;100.00
4598;BME280;62772;48.646;8.906;2022-10-16T03:53:17;96226.78;;;12.48;100.00
4598;BME280;62772;48.646;8.906;2022-10-16T03:58:18;96225.47;;;12.54;100.00
4598;BME280;62772;48.646;8.906;2022-10-16T04:03:23;96228.25;;;12.37;100.00
4598;BME280;62772;48.646;8.906;2022-10-16T04:08:23;96219.16;;;12.59;100.00
4598;BME280;62772;48.646;8.906;2022-10-16T04:13:24;96222.50;;;12.77;100.00
4598;BME280;62772;48.646;8.906;2022-10-16T04:18:28;96214.00;;;12.75;100.00
4598;BME280;62772;48.646;8.906;2022-10-16T04:23:29;96218.84;;;12.81;100.00
4598;BME280;62772;48.646;8.906;2022-10-16T04:28:30;96211.66;;;12.94;100.00
4598;BME280;62772;48.646;8.906;2022-10-16T04:33:33;96216.88;;;13.12;100.00
4598;BME280;62772;48.646;8.906;2022-10-16T04:38:34;96228.25;;;13.09;100.00
4598;BME280;62772;48.646;8.906;2022-10-16T04:43:35;96215.16;;;13.28;100.00
4598;BME280;62772;48.646;8.906;2022-10-16T04:48:38;96232.25;;;13.23;100.00
4598;BME280;62772;48.646;8.906;2022-10-16T04:53:39;96249.25;;;13.28;100.00
4598;BME280;62772;48.646;8.906;2022-10-16T04:58:40;96247.81;;;13.30;100.00
4598;BME280;62772;48.646;8.906;2022-10-16T05:03:43;96254.03;;;13.22;100.00
4598;BME280;62772;48.646;8.906;2022-10-16T05:08:44;96254.09;;;13.13;100.00
4598;BME280;62772;48.646;8.906;2022-10-16T05:13:45;96240.25;;;12.90;100.00
4598;BME280;62772;48.646;8.906;2022-10-16T05:18:49;96237.06;;;12.67;100.00
4598;BME280;62772;48.646;8.906;2022-10-16T05:23:52;96247.38;;;12.56;100.00
4598;BME280;62772;48.646;8.906;2022-10-16T05:28:53;96256.63;;;12.38;100.00
4598;BME280;62772;48.646;8.906;2022-10-16T05:34:00;96259.16;;;12.64;100.00
4598;BME280;62772;48.646;8.906;2022-10-16T05:39:01;96260.88;;;12.60;100.00
4598;BME280;62772;48.646;8.906;2022-10-16T05:44:04;96263.25;;;12.61;100.00
4598;BME280;62772;48.646;8.906;2022-10-16T05:49:08;96259.28;;;12.67;100.00
4598;BME280;62772;48.646;8.906;2022-10-16T05:54:09;96281.63;;;12.42;100.00
4598;BME280;62772;48.646;8.906;2022-10-16T05:59:10;96296.88;;;12.50;100.00
4598;BME280;62772;48.646;8.906;2022-10-16T06:04:18;96285.56;;;12.44;100.00
4598;BME280;62772;48.646;8.906;2022-10-16T06:09:18;96300.19;;;12.47;100.00
4598;BME280;62772;48.646;8.906;2022-10-16T06:14:19;96297.25;;;12.31;100.00
4598;BME280;62772;48.646;8.906;2022-10-16T06:19:23;96298.47;;;12.42;100.00
4598;BME280;62772;48.646;8.906;2022-10-16T06:24:24;96299.72;;;12.45;100.00
4598;BME280;62772;48.646;8.906;2022-10-16T06:29:25;96297.75;;;12.33;100.00
4598;BME280;62772;48.646;8.906;2022-10-16T06:34:28;96306.94;;;12.53;100.00
4598;BME280;62772;48.646;8.906;2022-10-16T06:39:29;96314.38;;;12.77;100.00
4598;BME280;62772;48.646;8.906;2022-10-16T06:44:29;96315.53;;;12.97;100.00
4598;BME280;62772;48.646;8.906;2022-10-16T06:49:33;96317.78;;;12.95;100.00
4598;BME280;62772;48.646;8.906;2022-10-16T06:54:34;96320.06;;;13.05;100.00
4598;BME280;62772;48.646;8.906;2022-10-16T06:59:34;96332.78;;;13.17;100.00
4598;BME280;62772;48.646;8.906;2022-10-16T07:04:38;96342.59;;;13.34;100.00
4598;BME280;62772;48.646;8.906;2022-10-16T07:09:40;96357.16;;;13.24;100.00
4598;BME280;62772;48.646;8.906;2022-10-16T07:14:40;96377.19;;;13.27;100.00
4598;BME280;62772;48.646;8.906;2022-10-16T07:19:44;96379.84;;;13.36;100.00
4598;BME280;62772;48.646;8.906;2022-10-16T07:24:45;96379.22;;;13.30;100.00
4598;BME280;62772;48.646;8.906;2022-10-16T07:29:46;96384.81;;;13.46;100.00
4598;BME280;62772;48.646;8.906;2022-10-16T07:34:49;96383.69;;;13.47;100.00
4598;BME280;62772;48.646;8.906;2022-10-16T07:39:50;96395.88;;;13.66;100.00
4598;BME280;62772;48.646;8.906;2022-10-16T07:44:51;96400.06;;;13.54;100.00
4598;BME280;62772;48.646;8.906;2022-10-16T07:49:54;96397.91;;;13.69;100.00
4598;BME280;62772;48.646;8.906;2022-10-16T07:54:55;96412.59;;;13.71;100.00
4598;BME280;62772;48.646;8.906;2022-10-16T07:59:56;96414.53;;;13.83;100.00
4598;BME280;62772;48.646;8.906;2022-10-16T08:04:59;96423.09;;;13.97;100.00
4598;BME280;62772;48.646;8.906;2022-10-16T08:10:00;96421.53;;;14.18;100.00
4598;BME280;62772;48.646;8.906;2022-10-16T08:15:01;96418.75;;;14.26;100.00
4598;BME280;62772;48.646;8.906;2022-10-16T08:20:05;96430.63;;;14.38;100.00
4598;BME280;62772;48.646;8.906;2022-10-16T08:25:07;96431.34;;;14.47;100.00
4598;BME280;62772;48.646;8.906;2022-10-16T08:30:10;96436.38;;;14.48;100.00
4598;BME280;62772;48.646;8.906;2022-10-16T08:35:14;96437.09;;;14.58;100.00
4598;BME280;62772;48.646;8.906;2022-10-16T08:40:18;96431.47;;;14.50;100.00
4598;BME280;62772;48.646;8.906;2022-10-16T08:45:34;96448.50;;;14.55;100.00
4598;BME280;62772;48.646;8.906;2022-10-16T08:50:42;96450.34;;;14.63;100.00
4598;BME280;62772;48.646;8.906;2022-10-16T08:55:44;96460.56;;;14.82;100.00
4598;BME280;62772;48.646;8.906;2022-10-16T09:00:47;96469.66;;;14.90;100.00
4598;BME280;62772;48.646;8.906;2022-10-16T09:06:07;96473.81;;;14.99;100.00
4598;BME280;62772;48.646;8.906;2022-10-16T09:11:16;96470.38;;;15.11;100.00
4598;BME280;62772;48.646;8.906;2022-10-16T09:16:24;96474.19;;;15.47;100.00
4598;BME280;62772;48.646;8.906;2022-10-16T09:21:34;96483.03;;;15.72;100.00
4598;BME280;62772;48.646;8.906;2022-10-16T09:26:36;96477.53;;;15.81;100.00
4598;BME280;62772;48.646;8.906;2022-10-16T09:31:36;96473.03;;;15.85;100.00
4598;BME280;62772;48.646;8.906;2022-10-16T09:36:43;96472.50;;;15.80;100.00
4598;BME280;62772;48.646;8.906;2022-10-16T09:41:45;96475.38;;;15.99;100.00
4598;BME280;62772;48.646;8.906;2022-10-16T09:46:46;96486.13;;;16.11;100.00
4598;BME280;62772;48.646;8.906;2022-10-16T09:51:50;96479.94;;;16.39;100.00
4598;BME280;62772;48.646;8.906;2022-10-16T09:56:51;96493.72;;;16.50;100.00
4598;BME280;62772;48.646;8.906;2022-10-16T10:01:54;96500.63;;;16.63;100.00
4598;BME280;62772;48.646;8.906;2022-10-16T10:06:58;96497.59;;;16.81;100.00
4598;BME280;62772;48.646;8.906;2022-10-16T10:12:00;96500.22;;;17.06;100.00
4598;BME280;62772;48.646;8.906;2022-10-16T10:17:14;96505.97;;;17.20;100.00
4598;BME280;62772;48.646;8.906;2022-10-16T10:22:27;96512.47;;;17.19;100.00
4598;BME280;62772;48.646;8.906;2022-10-16T10:27:37;96505.00;;;17.28;100.00
4598;BME280;62772;48.646;8.906;2022-10-16T10:32:44;96506.22;;;17.47;100.00
4598;BME280;62772;48.646;8.906;2022-10-16T10:38:00;96498.34;;;17.57;100.00
4598;BME280;62772;48.646;8.906;2022-10-16T10:43:09;96498.13;;;17.82;100.00
4598;BME280;62772;48.646;8.906;2022-10-16T10:48:21;96499.97;;;17.78;100.00
4598;BME280;62772;48.646;8.906;2022-10-16T10:53:36;96501.75;;;18.06;100.00
4598;BME280;62772;48.646;8.906;2022-10-16T10:58:53;96507.59;;;18.27;100.00
4598;BME280;62772;48.646;8.906;2022-10-16T11:04:19;96498.78;;;18.30;100.00
4598;BME280;62772;48.646;8.906;2022-10-16T11:09:30;96499.88;;;18.45;100.00
4598;BME280;62772;48.646;8.906;2022-10-16T11:14:36;96500.00;;;18.53;100.00
4598;BME280;62772;48.646;8.906;2022-10-16T11:19:42;96501.78;;;18.64;100.00
4598;BME280;62772;48.646;8.906;2022-10-16T11:24:50;96498.97;;;19.00;98.12
4598;BME280;62772;48.646;8.906;2022-10-16T11:29:56;96504.22;;;18.93;98.81
4598;BME280;62772;48.646;8.906;2022-10-16T11:35:02;96499.06;;;19.30;92.56
4598;BME280;62772;48.646;8.906;2022-10-16T11:40:17;96488.19;;;19.53;93.71
4598;BME280;62772;48.646;8.906;2022-10-16T11:45:26;96485.03;;;19.48;94.26
4598;BME280;62772;48.646;8.906;2022-10-16T11:50:32;96481.25;;;19.52;88.72
4598;BME280;62772;48.646;8.906;2022-10-16T11:55:39;96482.25;;;19.71;83.70
4598;BME280;62772;48.646;8.906;2022-10-16T12:00:46;96486.50;;;19.68;81.09
4598;BME280;62772;48.646;8.906;2022-10-16T12:06:02;96480.00;;;19.73;81.30
4598;BME280;62772;48.646;8.906;2022-10-16T12:11:22;96483.97;;;19.79;81.48
4598;BME280;62772;48.646;8.906;2022-10-16T12:16:24;96488.53;;;19.75;82.20
4598;BME280;62772;48.646;8.906;2022-10-16T12:21:30;96486.81;;;19.63;81.05
4598;BME280;62772;48.646;8.906;2022-10-16T12:26:37;96493.41;;;19.89;84.21
4598;BME280;62772;48.646;8.906;2022-10-16T12:31:44;96488.47;;;19.71;83.91
4598;BME280;62772;48.646;8.906;2022-10-16T12:36:46;96485.97;;;19.59;85.67
4598;BME280;62772;48.646;8.906;2022-10-16T12:42:00;96479.63;;;19.74;84.38
4598;BME280;62772;48.646;8.906;2022-10-16T12:47:02;96478.56;;;19.79;81.25
4598;BME280;62772;48.646;8.906;2022-10-16T12:52:03;96484.44;;;19.85;83.49
4598;BME280;62772;48.646;8.906;2022-10-16T12:57:24;96487.44;;;20.06;82.77
4598;BME280;62772;48.646;8.906;2022-10-16T13:03:02;96490.38;;;20.24;78.57
4598;BME280;62772;48.646;8.906;2022-10-16T13:08:25;96491.09;;;20.21;80.15
4598;BME280;62772;48.646;8.906;2022-10-16T13:13:52;96494.38;;;20.34;81.41
4598;BME280;62772;48.646;8.906;2022-10-16T13:19:06;96499.75;;;20.30;82.04
4598;BME280;62772;48.646;8.906;2022-10-16T13:24:19;96505.94;;;20.31;79.81
4598;BME280;62772;48.646;8.906;2022-10-16T13:29:29;96509.31;;;20.21;78.01
4598;BME280;62772;48.646;8.906;2022-10-16T13:34:31;96497.00;;;20.27;78.71
4598;BME280;62772;48.646;8.906;2022-10-16T13:39:31;96489.41;;;20.09;80.15
4598;BME280;62772;48.646;8.906;2022-10-16T13:44:40;96497.81;;;20.01;80.51
4598;BME280;62772;48.646;8.906;2022-10-16T13:49:42;96498.66;;;20.05;81.05
4598;BME280;62772;48.646;8.906;2022-10-16T13:54:43;96491.94;;;20.25;79.68
4598;BME280;62772;48.646;8.906;2022-10-16T13:59:46;96502.88;;;20.02;78.83
4598;BME280;62772;48.646;8.906;2022-10-16T14:04:47;96499.59;;;20.20;81.62
4598;BME280;62772;48.646;8.906;2022-10-16T14:09:50;96509.31;;;20.21;80.46
4598;BME280;62772;48.646;8.906;2022-10-16T14:14:55;96514.09;;;20.31;81.61
4598;BME280;62772;48.646;8.906;2022-10-16T14:19:59;96511.16;;;20.13;84.56
4598;BME280;62772;48.646;8.906;2022-10-16T14:25:01;96513.69;;;20.29;82.55
4598;BME280;62772;48.646;8.906;2022-10-16T14:30:16;96517.59;;;20.32;84.07
4598;BME280;62772;48.646;8.906;2022-10-16T14:35:27;96519.66;;;20.11;81.71
4598;BME280;62772;48.646;8.906;2022-10-16T14:40:30;96522.69;;;20.06;78.62
4598;BME280;62772;48.646;8.906;2022-10-16T14:45:35;96520.59;;;20.26;79.20
4598;BME280;62772;48.646;8.906;2022-10-16T14:50:36;96526.66;;;20.13;78.37
4598;BME280;62772;48.646;8.906;2022-10-16T14:55:37;96519.66;;;20.11;83.34
4598;BME280;62772;48.646;8.906;2022-10-16T15:00:40;96516.38;;;19.99;84.09
4598;BME280;62772;48.646;8.906;2022-10-16T15:05:41;96517.84;;;19.92;85.93
4598;BME280;62772;48.646;8.906;2022-10-16T15:10:43;96521.41;;;20.27;82.35
4598;BME280;62772;48.646;8.906;2022-10-16T15:15:47;96519.06;;;20.25;84.39
4598;BME280;62772;48.646;8.906;2022-10-16T15:20:50;96519.88;;;20.29;85.74
4598;BME280;62772;48.646;8.906;2022-10-16T15:25:52;96520.16;;;20.21;89.86
4598;BME280;62772;48.646;8.906;2022-10-16T15:30:57;96515.72;;;20.09;90.36
4598;BME280;62772;48.646;8.906;2022-10-16T15:35:58;96520.06;;;19.60;97.14
4598;BME280;62772;48.646;8.906;2022-10-16T15:40:59;96523.94;;;19.63;100.00
4598;BME280;62772;48.646;8.906;2022-10-16T15:46:04;96518.94;;;19.38;100.00
4598;BME280;62772;48.646;8.906;2022-10-16T15:51:07;96533.72;;;18.98;100.00
4598;BME280;62772;48.646;8.906;2022-10-16T15:56:09;96529.50;;;19.00;100.00
4598;BME280;62772;48.646;8.906;2022-10-16T16:01:14;96533.28;;;18.37;100.00
4598;BME280;62772;48.646;8.906;2022-10-16T16:06:15;96536.09;;;18.41;100.00
4598;BME280;62772;48.646;8.906;2022-10-16T16:11:17;96533.09;;;18.46;100.00
4598;BME280;62772;48.646;8.906;2022-10-16T16:16:20;96535.31;;;18.60;100.00
4598;BME280;62772;48.646;8.906;2022-10-16T16:21:21;96536.22;;;17.93;100.00
4598;BME280;62772;48.646;8.906;2022-10-16T16:26:24;96533.09;;;17.43;100.00
4598;BME280;62772;48.646;8.906;2022-10-16T16:31:32;96536.78;;;17.35;100.00
4598;BME280;62772;48.646;8.906;2022-10-16T16:36:34;96549.56;;;17.38;100.00
4598;BME280;62772;48.646;8.906;2022-10-16T16:41:35;96547.13;;;16.32;100.00
4598;BME280;62772;48.646;8.906;2022-10-16T16:46:38;96547.72;;;16.54;100.00
4598;BME280;62772;48.646;8.906;2022-10-16T16:51:40;96558.16;;;16.14;100.00
4598;BME280;62772;48.646;8.906;2022-10-16T16:56:41;96556.94;;;15.63;100.00
4598;BME280;62772;48.646;8.906;2022-10-16T17:01:48;96559.28;;;15.39;100.00
4598;BME280;62772;48.646;8.906;2022-10-16T17:06:49;96566.03;;;15.46;100.00
4598;BME280;62772;48.646;8.906;2022-10-16T17:11:49;96573.31;;;15.45;100.00
4598;BME280;62772;48.646;8.906;2022-10-16T17:16:53;96580.03;;;15.39;100.00
4598;BME280;62772;48.646;8.906;2022-10-16T17:21:54;96584.94;;;15.24;100.00
4598;BME280;62772;48.646;8.906;2022-10-16T17:26:54;96590.63;;;14.77;100.00
4598;BME280;62772;48.646;8.906;2022-10-16T17:31:58;96590.31;;;15.24;100.00
4598;BME280;62772;48.646;8.906;2022-10-16T17:36:59;96588.09;;;14.93;100.00
4598;BME280;62772;48.646;8.906;2022-10-16T17:42:00;96600.06;;;14.83;100.00
4598;BME280;62772;48.646;8.906;2022-10-16T17:47:03;96607.06;;;14.33;100.00
4598;BME280;62772;48.646;8.906;2022-10-16T17:52:04;96610.00;;;14.41;100.00
4598;BME280;62772;48.646;8.906;2022-10-16T17:57:05;96614.28;;;14.63;100.00
4598;BME280;62772;48.646;8.906;2022-10-16T18:02:09;96617.06;;;15.09;100.00
4598;BME280;62772;48.646;8.906;2022-10-16T18:07:11;96627.25;;;15.49;100.00
4598;BME280;62772;48.646;8.906;2022-10-16T18:12:12;96627.06;;;14.87;100.00
4598;BME280;62772;48.646;8.906;2022-10-16T18:17:16;96627.94;;;14.28;100.00
4598;BME280;62772;48.646;8.906;2022-10-16T18:22:18;96634.28;;;13.64;100.00
4598;BME280;62772;48.646;8.906;2022-10-16T18:27:19;96643.19;;;13.38;100.00
4598;BME280;62772;48.646;8.906;2022-10-16T18:32:23;96652.19;;;13.33;100.00
4598;BME280;62772;48.646;8.906;2022-10-16T18:37:24;96652.94;;;13.25;100.00
4598;BME280;62772;48.646;8.906;2022-10-16T18:42:25;96656.63;;;13.20;100.00
4598;BME280;62772;48.646;8.906;2022-10-16T18:47:30;96652.66;;;13.18;100.00
4598;BME280;62772;48.646;8.906;2022-10-16T18:52:30;96651.00;;;13.99;100.00
4598;BME280;62772;48.646;8.906;2022-10-16T18:57:31;96658.25;;;14.37;100.00
4598;BME280;62772;48.646;8.906;2022-10-16T19:02:35;96663.38;;;14.51;100.00
4598;BME280;62772;48.646;8.906;2022-10-16T19:07:36;96671.88;;;14.53;100.00
4598;BME280;62772;48.646;8.906;2022-10-16T19:12:36;96671.94;;;14.74;100.00
4598;BME280;62772;48.646;8.906;2022-10-16T19:17:40;96683.28;;;14.80;100.00
4598;BME280;62772;48.646;8.906;2022-10-16T19:22:41;96688.13;;;14.65;100.00
4598;BME280;62772;48.646;8.906;2022-10-16T19:27:53;96686.50;;;14.43;100.00
4598;BME280;62772;48.646;8.906;2022-10-16T19:32:57;96685.13;;;14.28;100.00
4598;BME280;62772;48.646;8.906;2022-10-16T19:37:58;96683.72;;;14.31;100.00
4598;BME280;62772;48.646;8.906;2022-10-16T19:42:58;96693.13;;;14.16;100.00
4598;BME280;62772;48.646;8.906;2022-10-16T19:48:02;96697.66;;;14.24;100.00
4598;BME280;62772;48.646;8.906;2022-10-16T19:53:03;96698.44;;;13.86;100.00
4598;BME280;62772;48.646;8.906;2022-10-16T19:58:04;96705.69;;;13.94;100.00
4598;BME280;62772;48.646;8.906;2022-10-16T20:03:08;96709.31;;;13.99;100.00
4598;BME280;62772;48.646;8.906;2022-10-16T20:08:08;96712.78;;;13.99;100.00
4598;BME280;62772;48.646;8.906;2022-10-16T20:13:09;96721.53;;;13.78;100.00
4598;BME280;62772;48.646;8.906;2022-10-16T20:18:15;96729.19;;;14.06;100.00
4598;BME280;62772;48.646;8.906;2022-10-16T20:23:16;96733.03;;;13.88;100.00
4598;BME280;62772;48.646;8.906;2022-10-16T20:28:19;96737.00;;;13.90;100.00
4598;BME280;62772;48.646;8.906;2022-10-16T20:33:23;96745.69;;;13.87;100.00
4598;BME280;62772;48.646;8.906;2022-10-16T20:38:24;96746.00;;;13.77;100.00
4598;BME280;62772;48.646;8.906;2022-10-16T20:43:26;96752.94;;;13.87;100.00
4598;BME280;62772;48.646;8.906;2022-10-16T20:48:29;96757.97;;;13.97;100.00
4598;BME280;62772;48.646;8.906;2022-10-16T20:53:30;96772.06;;;13.68;100.00
4598;BME280;62772;48.646;8.906;2022-10-16T20:58:31;96775.53;;;13.77;100.00
4598;BME280;62772;48.646;8.906;2022-10-16T21:03:35;96775.34;;;13.82;100.00
4598;BME280;62772;48.646;8.906;2022-10-16T21:08:37;96782.00;;;13.76;100.00
4598;BME280;62772;48.646;8.906;2022-10-16T21:13:38;96787.84;;;13.69;100.00
4598;BME280;62772;48.646;8.906;2022-10-16T21:18:42;96792.44;;;13.42;100.00
4598;BME280;62772;48.646;8.906;2022-10-16T21:23:43;96787.56;;;13.27;100.00
4598;BME280;62772;48.646;8.906;2022-10-16T21:28:47;96791.84;;;13.37;100.00
4598;BME280;62772;48.646;8.906;2022-10-16T21:33:50;96796.38;;;13.28;100.00
4598;BME280;62772;48.646;8.906;2022-10-16T21:38:52;96791.69;;;13.33;100.00
4598;BME280;62772;48.646;8.906;2022-10-16T21:43:54;96775.09;;;13.22;100.00
4598;BME280;62772;48.646;8.906;2022-10-16T21:48:59;96784.72;;;13.50;100.00
4598;BME280;62772;48.646;8.906;2022-10-16T21:54:01;96782.19;;;13.36;100.00
4598;BME280;62772;48.646;8.906;2022-10-16T21:59:02;96782.16;;;13.18;100.00
4598;BME280;62772;48.646;8.906;2022-10-16T22:04:07;96781.06;;;13.28;100.00
4598;BME280;62772;48.646;8.906;2022-10-16T22:09:09;96787.88;;;13.25;100.00
4598;BME280;62772;48.646;8.906;2022-10-16T22:14:15;96788.19;;;13.24;100.00
4598;BME280;62772;48.646;8.906;2022-10-16T22:19:20;96794.94;;;13.21;100.00
4598;BME280;62772;48.646;8.906;2022-10-16T22:24:22;96791.59;;;12.89;100.00
4598;BME280;62772;48.646;8.906;2022-10-16T22:29:23;96784.06;;;13.00;100.00
4598;BME280;62772;48.646;8.906;2022-10-16T22:34:26;96801.41;;;13.03;100.00
4598;BME280;62772;48.646;8.906;2022-10-16T22:39:28;96799.56;;;12.55;100.00
4598;BME280;62772;48.646;8.906;2022-10-16T22:44:29;96789.34;;;12.74;100.00
4598;BME280;62772;48.646;8.906;2022-10-16T22:49:33;96791.41;;;12.77;100.00
4598;BME280;62772;48.646;8.906;2022-10-16T22:54:34;96792.69;;;12.71;100.00
4598;BME280;62772;48.646;8.906;2022-10-16T22:59:35;96803.50;;;12.57;100.00
4598;BME280;62772;48.646;8.906;2022-10-16T23:04:38;96799.91;;;12.70;100.00
4598;BME280;62772;48.646;8.906;2022-10-16T23:09:39;96798.50;;;12.73;100.00
4598;BME280;62772;48.646;8.906;2022-10-16T23:14:40;96802.84;;;12.43;100.00
4598;BME280;62772;48.646;8.906;2022-10-16T23:19:43;96799.78;;;12.36;100.00
4598;BME280;62772;48.646;8.906;2022-10-16T23:24:44;96802.94;;;12.29;100.00
4598;BME280;62772;48.646;8.906;2022-10-16T23:29:45;96795.75;;;12.47;100.00
4598;BME280;62772;48.646;8.906;2022-10-16T23:34:48;96803.16;;;12.50;100.00
4598;BME280;62772;48.646;8.906;2022-10-16T23:39:49;96805.84;;;12.50;100.00
4598;BME280;62772;48.646;8.906;2022-10-16T23:44:50;96812.84;;;12.77;100.00
4598;BME280;62772;48.646;8.906;2022-10-16T23:49:54;96815.53;;;12.77;100.00
4598;BME280;62772;48.646;8.906;2022-10-16T23:54:56;96824.88;;;12.88;100.00
4598;BME280;62772;48.646;8.906;2022-10-16T23:59:57;96819.34;;;12.85;100.00
